createdAt,value
2018-08-03T00:00:46.037Z,0
2018-08-03T00:01:46.620Z,0
2018-08-03T00:02:47.184Z,0
2018-08-03T00:03:47.750Z,0
2018-08-03T00:04:48.315Z,0
2018-08-03T00:05:48.901Z,0
2018-08-03T00:06:49.466Z,0
2018-08-03T00:07:50.032Z,0
2018-08-03T00:08:50.596Z,0
2018-08-03T00:09:51.183Z,0
2018-08-03T00:10:51.748Z,0
2018-08-03T00:11:52.338Z,0
2018-08-03T00:12:52.901Z,0
2018-08-03T00:13:53.489Z,0
2018-08-03T00:14:54.054Z,0
2018-08-03T00:15:54.619Z,0
2018-08-03T00:16:55.185Z,0
2018-08-03T00:17:55.752Z,0
2018-08-03T00:18:56.317Z,0
2018-08-03T00:19:56.882Z,0
2018-08-03T00:20:57.445Z,0
2018-08-03T00:21:58.013Z,0
2018-08-03T00:22:58.578Z,0
2018-08-03T00:23:59.143Z,0
2018-08-03T00:24:59.708Z,0
2018-08-03T00:26:00.273Z,0
2018-08-03T00:27:00.858Z,0
2018-08-03T00:28:01.423Z,0
2018-08-03T00:29:01.989Z,0
2018-08-03T00:30:02.556Z,0
2018-08-03T00:31:03.120Z,0
2018-08-03T00:32:03.686Z,0
2018-08-03T00:33:04.272Z,0
2018-08-03T00:34:04.837Z,0
2018-08-03T00:35:05.403Z,0
2018-08-03T00:36:05.986Z,0
2018-08-03T00:37:06.550Z,0
2018-08-03T00:38:07.116Z,0
2018-08-03T00:39:07.679Z,0
2018-08-03T00:40:08.252Z,0
2018-08-03T00:41:08.830Z,0
2018-08-03T00:42:09.394Z,0
2018-08-03T00:43:09.960Z,0
2018-08-03T00:44:10.524Z,0
2018-08-03T00:45:11.090Z,0
2018-08-03T00:46:11.652Z,0
2018-08-03T00:47:12.218Z,0
2018-08-03T00:48:12.783Z,0
2018-08-03T00:49:13.367Z,0
2018-08-03T00:50:13.933Z,0
2018-08-03T00:51:14.498Z,0
2018-08-03T00:52:15.064Z,0
2018-08-03T00:53:15.628Z,0
2018-08-03T00:54:16.192Z,0
2018-08-03T00:55:16.777Z,0
2018-08-03T00:56:17.341Z,0
2018-08-03T00:57:17.929Z,0
2018-08-03T00:58:18.492Z,0
2018-08-03T00:59:19.057Z,0
2018-08-03T01:00:19.623Z,0
2018-08-03T01:01:20.189Z,0
2018-08-03T01:02:20.753Z,0
2018-08-03T01:03:21.319Z,0
2018-08-03T01:04:21.904Z,0
2018-08-03T01:05:22.467Z,0
2018-08-03T01:06:23.033Z,0
2018-08-03T01:07:23.618Z,0
2018-08-03T01:08:24.183Z,0
2018-08-03T01:09:24.771Z,0
2018-08-03T01:10:25.335Z,0
2018-08-03T01:11:25.899Z,0
2018-08-03T01:12:26.464Z,0
2018-08-03T01:13:27.032Z,0
2018-08-03T01:14:27.615Z,0
2018-08-03T01:15:28.179Z,0
2018-08-03T01:16:28.744Z,0
2018-08-03T01:17:29.306Z,0
2018-08-03T01:18:29.870Z,0
2018-08-03T01:19:30.435Z,0
2018-08-03T01:20:31.001Z,0
2018-08-03T01:21:31.564Z,0
2018-08-03T01:22:32.128Z,0
2018-08-03T01:23:32.715Z,0
2018-08-03T01:24:33.279Z,0
2018-08-03T01:25:33.846Z,0
2018-08-03T01:26:34.426Z,0
2018-08-03T01:27:34.988Z,0
2018-08-03T01:28:35.553Z,0
2018-08-03T01:29:36.117Z,0
2018-08-03T01:30:36.680Z,0
2018-08-03T01:31:37.264Z,0
2018-08-03T01:32:37.828Z,0
2018-08-03T01:33:38.392Z,0
2018-08-03T01:34:38.957Z,0
2018-08-03T01:35:39.522Z,0
2018-08-03T01:36:40.086Z,0
2018-08-03T01:37:40.676Z,0
2018-08-03T01:38:41.259Z,0
2018-08-03T01:39:41.823Z,0
2018-08-03T01:40:42.386Z,0
2018-08-03T01:41:42.951Z,0
2018-08-03T01:42:43.514Z,0
2018-08-03T01:43:44.078Z,0
2018-08-03T01:44:44.664Z,0
2018-08-03T01:45:45.232Z,0
2018-08-03T01:46:45.793Z,0
2018-08-03T01:47:46.358Z,0
2018-08-03T01:48:46.921Z,0
2018-08-03T01:49:47.488Z,0
2018-08-03T01:50:48.050Z,0
2018-08-03T01:51:48.616Z,0
2018-08-03T01:52:49.178Z,0
2018-08-03T01:53:49.743Z,0
2018-08-03T01:54:50.309Z,0
2018-08-03T01:55:50.872Z,0
2018-08-03T01:56:51.438Z,0
2018-08-03T01:57:52.000Z,0
2018-08-03T01:58:52.566Z,0
2018-08-03T01:59:53.128Z,0
2018-08-03T02:00:53.694Z,0
2018-08-03T02:01:54.277Z,0
2018-08-03T02:02:54.843Z,0
2018-08-03T02:03:55.405Z,0
2018-08-03T02:04:55.968Z,0
2018-08-03T02:05:56.534Z,0
2018-08-03T02:06:57.098Z,0
2018-08-03T02:07:57.662Z,0
2018-08-03T02:08:58.245Z,0
2018-08-03T02:09:58.810Z,0
2018-08-03T02:10:59.375Z,0
2018-08-03T02:11:59.960Z,0
2018-08-03T02:13:00.523Z,0
2018-08-03T02:14:01.089Z,0
2018-08-03T02:15:01.665Z,0
2018-08-03T02:16:02.237Z,0
2018-08-03T02:17:02.800Z,0
2018-08-03T02:18:03.365Z,0
2018-08-03T02:19:03.950Z,0
2018-08-03T02:20:04.515Z,0
2018-08-03T02:21:05.081Z,0
2018-08-03T02:22:05.666Z,0
2018-08-03T02:23:06.230Z,0
2018-08-03T02:24:06.795Z,0
2018-08-03T02:25:07.367Z,0
2018-08-03T02:26:07.922Z,0
2018-08-03T02:27:08.486Z,0
2018-08-03T02:28:09.052Z,0
2018-08-03T02:29:09.636Z,0
2018-08-03T02:30:10.200Z,0
2018-08-03T02:31:10.774Z,0
2018-08-03T02:32:11.347Z,0
2018-08-03T02:33:11.913Z,0
2018-08-03T02:34:12.475Z,0
2018-08-03T02:35:13.039Z,0
2018-08-03T02:36:13.602Z,0
2018-08-03T02:37:14.166Z,0
2018-08-03T02:38:14.734Z,0
2018-08-03T02:39:15.319Z,0
2018-08-03T02:40:15.881Z,0
2018-08-03T02:41:16.448Z,0
2018-08-03T02:42:17.030Z,0
2018-08-03T02:43:17.595Z,0
2018-08-03T02:44:18.154Z,0
2018-08-03T02:45:18.719Z,0
2018-08-03T02:46:19.283Z,0
2018-08-03T02:47:19.848Z,0
2018-08-03T02:48:20.410Z,0
2018-08-03T02:49:20.974Z,0
2018-08-03T02:50:21.537Z,0
2018-08-03T02:51:22.102Z,0
2018-08-03T02:52:22.666Z,0
2018-08-03T02:53:23.228Z,0
2018-08-03T02:54:23.791Z,0
2018-08-03T02:55:24.374Z,0
2018-08-03T02:56:24.961Z,0
2018-08-03T02:57:25.524Z,0
2018-08-03T02:58:26.089Z,0
2018-08-03T02:59:26.675Z,0
2018-08-03T03:00:27.241Z,0
2018-08-03T03:01:27.823Z,0
2018-08-03T03:02:28.388Z,0
2018-08-03T03:03:28.974Z,0
2018-08-03T03:04:29.554Z,0
2018-08-03T03:05:30.120Z,0
2018-08-03T03:06:30.682Z,0
2018-08-03T03:07:31.246Z,0
2018-08-03T03:08:31.808Z,0
2018-08-03T03:09:32.372Z,0
2018-08-03T03:10:32.936Z,0
2018-08-03T03:11:33.498Z,0
2018-08-03T03:12:34.062Z,0
2018-08-03T03:13:34.629Z,0
2018-08-03T03:14:35.190Z,0
2018-08-03T03:15:35.753Z,0
2018-08-03T03:16:36.341Z,0
2018-08-03T03:17:36.904Z,0
2018-08-03T03:18:37.468Z,0
2018-08-03T03:19:38.071Z,0
2018-08-03T03:20:38.596Z,0
2018-08-03T03:21:39.161Z,0
2018-08-03T03:22:39.727Z,0
2018-08-03T03:23:40.288Z,0
2018-08-03T03:24:40.875Z,0
2018-08-03T03:25:41.438Z,0
2018-08-03T03:26:42.002Z,0
2018-08-03T03:27:42.567Z,0
2018-08-03T03:28:43.131Z,0
2018-08-03T03:29:43.694Z,0
2018-08-03T03:30:44.257Z,0
2018-08-03T03:31:44.824Z,0
2018-08-03T03:32:45.482Z,0
2018-08-03T03:33:45.954Z,0
2018-08-03T03:34:46.535Z,0
2018-08-03T03:35:47.101Z,0
2018-08-03T03:36:47.665Z,0
2018-08-03T03:37:48.235Z,0
2018-08-03T03:38:48.816Z,0
2018-08-03T03:39:49.378Z,0
2018-08-03T03:40:49.946Z,0
2018-08-03T03:41:50.509Z,0
2018-08-03T03:42:51.073Z,0
2018-08-03T03:43:51.639Z,0
2018-08-03T03:44:52.203Z,0
2018-08-03T03:45:52.774Z,0
2018-08-03T03:46:53.333Z,0
2018-08-03T03:47:53.898Z,0
2018-08-03T03:48:54.464Z,0
2018-08-03T03:49:55.029Z,0
2018-08-03T03:50:55.613Z,0
2018-08-03T03:51:56.162Z,0
2018-08-03T03:52:56.748Z,0
2018-08-03T03:53:57.315Z,5
2018-08-03T03:54:57.900Z,5
2018-08-03T03:55:58.465Z,5
2018-08-03T03:56:59.032Z,5
2018-08-03T03:57:59.600Z,5
2018-08-03T03:59:00.163Z,5
2018-08-03T04:00:00.729Z,5
2018-08-03T04:01:01.297Z,10
2018-08-03T04:02:01.863Z,10
2018-08-03T04:03:02.428Z,10
2018-08-03T04:04:02.996Z,10
2018-08-03T04:05:03.562Z,10
2018-08-03T04:06:04.128Z,10
2018-08-03T04:07:04.697Z,15
2018-08-03T04:08:05.263Z,15
2018-08-03T04:09:05.830Z,15
2018-08-03T04:10:06.396Z,15
2018-08-03T04:11:06.963Z,20
2018-08-03T04:12:07.529Z,20
2018-08-03T04:13:08.096Z,20
2018-08-03T04:14:08.662Z,20
2018-08-03T04:15:09.231Z,25
2018-08-03T04:16:09.816Z,25
2018-08-03T04:17:10.407Z,25
2018-08-03T04:18:10.976Z,30
2018-08-03T04:19:11.564Z,30
2018-08-03T04:20:12.131Z,30
2018-08-03T04:21:12.701Z,35
2018-08-03T04:22:13.266Z,35
2018-08-03T04:23:13.855Z,35
2018-08-03T04:24:14.422Z,40
2018-08-03T04:25:14.990Z,40
2018-08-03T04:26:15.557Z,40
2018-08-03T04:27:16.125Z,45
2018-08-03T04:28:16.694Z,45
2018-08-03T04:29:17.260Z,50
2018-08-03T04:30:17.828Z,50
2018-08-03T04:31:18.398Z,50
2018-08-03T04:32:18.984Z,55
2018-08-03T04:33:19.553Z,55
2018-08-03T04:34:20.121Z,60
2018-08-03T04:35:20.690Z,60
2018-08-03T04:36:21.256Z,60
2018-08-03T04:37:21.823Z,65
2018-08-03T04:38:22.411Z,65
2018-08-03T04:39:22.978Z,65
2018-08-03T04:40:23.566Z,70
2018-08-03T04:41:24.135Z,70
2018-08-03T04:42:24.715Z,70
2018-08-03T04:43:25.292Z,80
2018-08-03T04:44:25.860Z,85
2018-08-03T04:45:26.459Z,90
2018-08-03T04:46:27.041Z,95
2018-08-03T04:47:27.626Z,95
2018-08-03T04:48:28.217Z,100
2018-08-03T04:49:28.809Z,105
2018-08-03T04:50:29.380Z,105
2018-08-03T04:51:29.952Z,110
2018-08-03T04:52:30.525Z,110
2018-08-03T04:53:31.099Z,105
2018-08-03T04:54:31.665Z,105
2018-08-03T04:55:32.234Z,115
2018-08-03T04:56:32.828Z,120
2018-08-03T04:57:33.400Z,115
2018-08-03T04:58:33.970Z,110
2018-08-03T04:59:34.539Z,115
2018-08-03T05:00:35.110Z,130
2018-08-03T05:01:35.683Z,145
2018-08-03T05:02:36.258Z,145
2018-08-03T05:03:36.833Z,150
2018-08-03T05:04:37.419Z,150
2018-08-03T05:05:37.975Z,155
2018-08-03T05:06:38.549Z,160
2018-08-03T05:07:39.124Z,165
2018-08-03T05:08:39.699Z,155
2018-08-03T05:09:40.272Z,155
2018-08-03T05:10:40.844Z,155
2018-08-03T05:11:41.417Z,155
2018-08-03T05:12:42.014Z,160
2018-08-03T05:13:42.590Z,175
2018-08-03T05:14:43.165Z,190
2018-08-03T05:15:43.740Z,200
2018-08-03T05:16:44.311Z,195
2018-08-03T05:17:44.907Z,195
2018-08-03T05:18:45.484Z,200
2018-08-03T05:19:46.061Z,215
2018-08-03T05:20:46.635Z,210
2018-08-03T05:21:47.210Z,215
2018-08-03T05:22:47.788Z,215
2018-08-03T05:23:48.385Z,220
2018-08-03T05:24:48.983Z,230
2018-08-03T05:25:49.561Z,235
2018-08-03T05:26:50.135Z,240
2018-08-03T05:27:50.712Z,240
2018-08-03T05:28:51.291Z,245
2018-08-03T05:29:51.873Z,250
2018-08-03T05:30:52.471Z,250
2018-08-03T05:31:53.050Z,255
2018-08-03T05:32:53.628Z,260
2018-08-03T05:33:54.207Z,265
2018-08-03T05:34:54.785Z,270
2018-08-03T05:35:55.424Z,265
2018-08-03T05:36:55.943Z,255
2018-08-03T05:37:56.521Z,215
2018-08-03T05:38:57.099Z,190
2018-08-03T05:39:57.672Z,185
2018-08-03T05:40:58.248Z,190
2018-08-03T05:41:58.823Z,190
2018-08-03T05:42:59.402Z,200
2018-08-03T05:43:59.999Z,220
2018-08-03T05:45:00.575Z,255
2018-08-03T05:46:01.173Z,275
2018-08-03T05:47:01.752Z,290
2018-08-03T05:48:02.350Z,300
2018-08-03T05:49:02.927Z,310
2018-08-03T05:50:03.507Z,325
2018-08-03T05:51:04.083Z,330
2018-08-03T05:52:04.682Z,340
2018-08-03T05:53:05.264Z,310
2018-08-03T05:54:05.851Z,255
2018-08-03T05:55:06.443Z,230
2018-08-03T05:56:07.023Z,285
2018-08-03T05:57:07.601Z,355
2018-08-03T05:58:08.181Z,370
2018-08-03T05:59:08.756Z,375
2018-08-03T06:00:09.338Z,390
2018-08-03T06:01:09.913Z,395
2018-08-03T06:02:10.493Z,390
2018-08-03T06:03:11.072Z,395
2018-08-03T06:04:11.676Z,400
2018-08-03T06:05:12.276Z,410
2018-08-03T06:06:12.856Z,420
2018-08-03T06:07:13.436Z,415
2018-08-03T06:08:14.071Z,375
2018-08-03T06:09:14.598Z,305
2018-08-03T06:10:15.178Z,330
2018-08-03T06:11:15.758Z,415
2018-08-03T06:12:16.340Z,445
2018-08-03T06:13:16.917Z,450
2018-08-03T06:14:17.495Z,455
2018-08-03T06:15:18.098Z,460
2018-08-03T06:16:18.680Z,470
2018-08-03T06:17:19.259Z,480
2018-08-03T06:18:19.860Z,490
2018-08-03T06:19:20.442Z,490
2018-08-03T06:20:21.024Z,495
2018-08-03T06:21:21.606Z,510
2018-08-03T06:22:22.191Z,515
2018-08-03T06:23:22.771Z,515
2018-08-03T06:24:23.352Z,520
2018-08-03T06:25:23.933Z,525
2018-08-03T06:26:24.515Z,530
2018-08-03T06:27:25.097Z,540
2018-08-03T06:28:25.721Z,545
2018-08-03T06:29:26.278Z,550
2018-08-03T06:30:26.864Z,565
2018-08-03T06:31:27.446Z,565
2018-08-03T06:32:28.049Z,575
2018-08-03T06:33:28.634Z,580
2018-08-03T06:34:29.217Z,580
2018-08-03T06:35:29.802Z,590
2018-08-03T06:36:30.398Z,590
2018-08-03T06:37:30.968Z,595
2018-08-03T06:38:31.551Z,605
2018-08-03T06:39:32.134Z,610
2018-08-03T06:40:32.718Z,620
2018-08-03T06:41:33.301Z,625
2018-08-03T06:42:33.908Z,625
2018-08-03T06:43:34.492Z,630
2018-08-03T06:44:35.079Z,640
2018-08-03T06:45:35.659Z,655
2018-08-03T06:46:36.264Z,655
2018-08-03T06:47:36.848Z,660
2018-08-03T06:48:37.454Z,660
2018-08-03T06:49:38.042Z,670
2018-08-03T06:50:38.652Z,675
2018-08-03T06:51:39.230Z,680
2018-08-03T06:52:39.813Z,690
2018-08-03T06:53:40.432Z,690
2018-08-03T06:54:40.980Z,695
2018-08-03T06:55:41.563Z,705
2018-08-03T06:56:42.147Z,710
2018-08-03T06:57:42.736Z,725
2018-08-03T06:58:43.316Z,725
2018-08-03T06:59:43.919Z,730
2018-08-03T07:00:44.516Z,740
2018-08-03T07:01:45.114Z,750
2018-08-03T07:02:45.770Z,755
2018-08-03T07:03:46.300Z,755
2018-08-03T07:04:46.883Z,770
2018-08-03T07:05:47.465Z,780
2018-08-03T07:06:48.049Z,780
2018-08-03T07:07:48.633Z,790
2018-08-03T07:08:49.219Z,795
2018-08-03T07:09:49.803Z,800
2018-08-03T07:10:50.388Z,805
2018-08-03T07:11:50.971Z,810
2018-08-03T07:12:51.554Z,825
2018-08-03T07:13:52.139Z,830
2018-08-03T07:14:52.763Z,835
2018-08-03T07:15:53.315Z,845
2018-08-03T07:16:53.914Z,855
2018-08-03T07:17:54.498Z,865
2018-08-03T07:18:55.082Z,865
2018-08-03T07:19:55.735Z,875
2018-08-03T07:20:56.249Z,885
2018-08-03T07:21:56.837Z,895
2018-08-03T07:22:57.419Z,905
2018-08-03T07:23:58.006Z,910
2018-08-03T07:24:58.588Z,910
2018-08-03T07:25:59.259Z,925
2018-08-03T07:26:59.778Z,935
2018-08-03T07:28:00.384Z,940
2018-08-03T07:29:00.971Z,940
2018-08-03T07:30:01.557Z,955
2018-08-03T07:31:02.142Z,965
2018-08-03T07:32:02.730Z,975
2018-08-03T07:33:03.333Z,990
2018-08-03T07:34:03.918Z,995
2018-08-03T07:35:04.503Z,1020
2018-08-03T07:36:05.090Z,1025
2018-08-03T07:37:05.698Z,1040
2018-08-03T07:38:06.309Z,1050
2018-08-03T07:39:06.874Z,1055
2018-08-03T07:40:07.533Z,1065
2018-08-03T07:41:08.064Z,1075
2018-08-03T07:42:08.652Z,1090
2018-08-03T07:43:09.285Z,1105
2018-08-03T07:44:09.827Z,1120
2018-08-03T07:45:10.434Z,1125
2018-08-03T07:46:11.022Z,1135
2018-08-03T07:47:11.605Z,1130
2018-08-03T07:48:12.190Z,1140
2018-08-03T07:49:12.777Z,1160
2018-08-03T07:50:13.362Z,1165
2018-08-03T07:51:13.950Z,1170
2018-08-03T07:52:14.537Z,1170
2018-08-03T07:53:15.125Z,1170
2018-08-03T07:54:15.711Z,1180
2018-08-03T07:55:16.299Z,1180
2018-08-03T07:56:16.885Z,1195
2018-08-03T07:57:17.474Z,1200
2018-08-03T07:58:18.061Z,1210
2018-08-03T07:59:18.648Z,1200
2018-08-03T08:00:19.241Z,1210
2018-08-03T08:01:19.845Z,1220
2018-08-03T08:02:20.430Z,1225
2018-08-03T08:03:21.165Z,1225
2018-08-03T08:04:21.619Z,1240
2018-08-03T08:05:22.205Z,1250
2018-08-03T08:06:22.830Z,1270
2018-08-03T08:07:23.379Z,1260
2018-08-03T08:08:23.967Z,1265
2018-08-03T08:09:24.554Z,1270
2018-08-03T08:10:25.141Z,1275
2018-08-03T08:11:25.727Z,1280
2018-08-03T08:12:26.315Z,1285
2018-08-03T08:13:26.900Z,1290
2018-08-03T08:14:27.507Z,1290
2018-08-03T08:15:28.093Z,1310
2018-08-03T08:16:28.677Z,1310
2018-08-03T08:17:29.266Z,1315
2018-08-03T08:18:29.849Z,1330
2018-08-03T08:19:30.435Z,1345
2018-08-03T08:20:31.020Z,1350
2018-08-03T08:21:31.635Z,1355
2018-08-03T08:22:32.243Z,1360
2018-08-03T08:23:32.829Z,1380
2018-08-03T08:24:33.414Z,1385
2018-08-03T08:25:33.999Z,1380
2018-08-03T08:26:34.598Z,1385
2018-08-03T08:27:35.187Z,1405
2018-08-03T08:28:35.768Z,1410
2018-08-03T08:29:36.353Z,1405
2018-08-03T08:30:36.940Z,1410
2018-08-03T08:31:37.565Z,1405
2018-08-03T08:32:38.115Z,1410
2018-08-03T08:33:38.723Z,1420
2018-08-03T08:34:39.307Z,1435
2018-08-03T08:35:39.897Z,1440
2018-08-03T08:36:40.483Z,1440
2018-08-03T08:37:41.071Z,1445
2018-08-03T08:38:41.654Z,1450
2018-08-03T08:39:42.240Z,1460
2018-08-03T08:40:42.823Z,1470
2018-08-03T08:41:43.409Z,1485
2018-08-03T08:42:43.995Z,1500
2018-08-03T08:43:44.643Z,1505
2018-08-03T08:44:45.169Z,1515
2018-08-03T08:45:45.758Z,1530
2018-08-03T08:46:46.344Z,1535
2018-08-03T08:47:46.934Z,1525
2018-08-03T08:48:47.519Z,1530
2018-08-03T08:49:48.105Z,1530
2018-08-03T08:50:48.692Z,1530
2018-08-03T08:51:49.279Z,1540
2018-08-03T08:52:49.864Z,1560
2018-08-03T08:53:50.451Z,1565
2018-08-03T08:54:51.100Z,1570
2018-08-03T08:55:51.620Z,1580
2018-08-03T08:56:52.205Z,1595
2018-08-03T08:57:52.790Z,1595
2018-08-03T08:58:53.375Z,1605
2018-08-03T08:59:53.964Z,1620
2018-08-03T09:00:54.667Z,1630
2018-08-03T09:01:55.166Z,1635
2018-08-03T09:02:55.772Z,1645
2018-08-03T09:03:56.358Z,1650
2018-08-03T09:04:56.945Z,1665
2018-08-03T09:05:57.532Z,1675
2018-08-03T09:06:58.121Z,1670
2018-08-03T09:07:58.703Z,1670
2018-08-03T09:08:59.289Z,1675
2018-08-03T09:09:59.875Z,1680
2018-08-03T09:11:00.462Z,1690
2018-08-03T09:12:01.051Z,1710
2018-08-03T09:13:01.650Z,1715
2018-08-03T09:14:02.247Z,1715
2018-08-03T09:15:02.833Z,1725
2018-08-03T09:16:03.419Z,1750
2018-08-03T09:17:04.006Z,1755
2018-08-03T09:18:04.591Z,1750
2018-08-03T09:19:05.177Z,1755
2018-08-03T09:20:05.763Z,1755
2018-08-03T09:21:06.351Z,1750
2018-08-03T09:22:06.944Z,1770
2018-08-03T09:23:07.527Z,1785
2018-08-03T09:24:08.112Z,1805
2018-08-03T09:25:08.703Z,1810
2018-08-03T09:26:09.287Z,1820
2018-08-03T09:27:09.882Z,1835
2018-08-03T09:28:10.465Z,1825
2018-08-03T09:29:11.051Z,1825
2018-08-03T09:30:11.658Z,1835
2018-08-03T09:31:12.245Z,1860
2018-08-03T09:32:12.830Z,1855
2018-08-03T09:33:13.416Z,1860
2018-08-03T09:34:14.001Z,1855
2018-08-03T09:35:14.589Z,1875
2018-08-03T09:36:15.198Z,1875
2018-08-03T09:37:15.781Z,1890
2018-08-03T09:38:16.366Z,1880
2018-08-03T09:39:16.976Z,1880
2018-08-03T09:40:17.563Z,1895
2018-08-03T09:41:18.151Z,1900
2018-08-03T09:42:18.739Z,1920
2018-08-03T09:43:19.326Z,1945
2018-08-03T09:44:19.913Z,1965
2018-08-03T09:45:20.499Z,1970
2018-08-03T09:46:21.088Z,1990
2018-08-03T09:47:21.675Z,2020
2018-08-03T09:48:22.261Z,2045
2018-08-03T09:49:22.856Z,2045
2018-08-03T09:50:23.440Z,2065
2018-08-03T09:51:24.028Z,2060
2018-08-03T09:52:24.614Z,2065
2018-08-03T09:53:25.203Z,2065
2018-08-03T09:54:25.801Z,2060
2018-08-03T09:55:26.379Z,2075
2018-08-03T09:56:26.963Z,2080
2018-08-03T09:57:27.547Z,2075
2018-08-03T09:58:28.133Z,2085
2018-08-03T09:59:28.719Z,2100
2018-08-03T10:00:29.305Z,2110
2018-08-03T10:01:29.890Z,2125
2018-08-03T10:02:30.476Z,2145
2018-08-03T10:03:31.205Z,2180
2018-08-03T10:04:31.747Z,2155
2018-08-03T10:05:32.333Z,2145
2018-08-03T10:06:32.920Z,2130
2018-08-03T10:07:33.507Z,2155
2018-08-03T10:08:34.093Z,2150
2018-08-03T10:09:34.688Z,2175
2018-08-03T10:10:35.364Z,2185
2018-08-03T10:11:35.868Z,2175
2018-08-03T10:12:36.452Z,2170
2018-08-03T10:13:37.038Z,2140
2018-08-03T10:14:37.626Z,2155
2018-08-03T10:15:38.252Z,2170
2018-08-03T10:16:38.797Z,2180
2018-08-03T10:17:39.383Z,2165
2018-08-03T10:18:39.972Z,2160
2018-08-03T10:19:40.554Z,2170
2018-08-03T10:20:41.142Z,2165
2018-08-03T10:21:41.752Z,2190
2018-08-03T10:22:42.358Z,2195
2018-08-03T10:23:42.946Z,2225
2018-08-03T10:24:43.532Z,2240
2018-08-03T10:25:44.120Z,2235
2018-08-03T10:26:44.723Z,2230
2018-08-03T10:27:45.317Z,2225
2018-08-03T10:28:45.906Z,2240
2018-08-03T10:29:46.524Z,2240
2018-08-03T10:30:47.099Z,2250
2018-08-03T10:31:47.683Z,2245
2018-08-03T10:32:48.269Z,2235
2018-08-03T10:33:48.856Z,2240
2018-08-03T10:34:49.439Z,2260
2018-08-03T10:35:50.028Z,2270
2018-08-03T10:36:50.611Z,2275
2018-08-03T10:37:51.198Z,2270
2018-08-03T10:38:51.805Z,2260
2018-08-03T10:39:52.391Z,2245
2018-08-03T10:40:53.000Z,2245
2018-08-03T10:41:53.584Z,2290
2018-08-03T10:42:54.256Z,2290
2018-08-03T10:43:54.758Z,2280
2018-08-03T10:44:55.347Z,2255
2018-08-03T10:45:55.953Z,2245
2018-08-03T10:46:56.540Z,2240
2018-08-03T10:47:57.130Z,2285
2018-08-03T10:48:57.710Z,2300
2018-08-03T10:49:58.317Z,2285
2018-08-03T10:50:58.903Z,2250
2018-08-03T10:51:59.489Z,2270
2018-08-03T10:53:00.076Z,2270
2018-08-03T10:54:00.661Z,2285
2018-08-03T10:55:01.248Z,2295
2018-08-03T10:56:01.835Z,2325
2018-08-03T10:57:02.422Z,2355
2018-08-03T10:58:03.007Z,2425
2018-08-03T10:59:03.592Z,2445
2018-08-03T11:00:04.178Z,2370
2018-08-03T11:01:04.762Z,2335
2018-08-03T11:02:05.351Z,2365
2018-08-03T11:03:05.938Z,2405
2018-08-03T11:04:06.545Z,2465
2018-08-03T11:05:07.131Z,2445
2018-08-03T11:06:07.717Z,2430
2018-08-03T11:07:08.305Z,2445
2018-08-03T11:08:08.913Z,2440
2018-08-03T11:09:09.512Z,2430
2018-08-03T11:10:10.101Z,2425
2018-08-03T11:11:10.688Z,2465
2018-08-03T11:12:11.276Z,2495
2018-08-03T11:13:11.884Z,2515
2018-08-03T11:14:12.492Z,2535
2018-08-03T11:15:13.099Z,2540
2018-08-03T11:16:13.686Z,2545
2018-08-03T11:17:14.272Z,2575
2018-08-03T11:18:14.856Z,2655
2018-08-03T11:19:15.441Z,2675
2018-08-03T11:20:16.028Z,2665
2018-08-03T11:21:16.615Z,2695
2018-08-03T11:22:17.201Z,2720
2018-08-03T11:23:17.810Z,2715
2018-08-03T11:24:18.493Z,2750
2018-08-03T11:25:18.983Z,2780
2018-08-03T11:26:19.570Z,2740
2018-08-03T11:27:20.157Z,2745
2018-08-03T11:28:20.743Z,2735
2018-08-03T11:29:21.329Z,2755
2018-08-03T11:30:21.936Z,2765
2018-08-03T11:31:22.522Z,2795
2018-08-03T11:32:23.106Z,2810
2018-08-03T11:33:23.693Z,2790
2018-08-03T11:34:24.280Z,2765
2018-08-03T11:35:24.868Z,2780
2018-08-03T11:36:25.455Z,2770
2018-08-03T11:37:26.042Z,2785
2018-08-03T11:38:26.627Z,2800
2018-08-03T11:39:27.233Z,2805
2018-08-03T11:40:27.819Z,2770
2018-08-03T11:41:28.427Z,2770
2018-08-03T11:42:29.038Z,2700
2018-08-03T11:43:29.621Z,2695
2018-08-03T11:44:30.208Z,2765
2018-08-03T11:45:30.794Z,2785
2018-08-03T11:46:31.377Z,2785
2018-08-03T11:47:31.962Z,2845
2018-08-03T11:48:32.549Z,2795
2018-08-03T11:49:33.135Z,2745
2018-08-03T11:50:33.723Z,2770
2018-08-03T11:51:34.310Z,2745
2018-08-03T11:52:34.897Z,2760
2018-08-03T11:53:35.484Z,2775
2018-08-03T11:54:36.094Z,2805
2018-08-03T11:55:36.703Z,2850
2018-08-03T11:56:37.310Z,2810
2018-08-03T11:57:37.895Z,2760
2018-08-03T11:58:38.485Z,2755
2018-08-03T11:59:39.064Z,2800
2018-08-03T12:00:39.651Z,2835
2018-08-03T12:01:40.237Z,2850
2018-08-03T12:02:40.829Z,2855
2018-08-03T12:03:41.411Z,2870
2018-08-03T12:04:42.000Z,2885
2018-08-03T12:05:42.609Z,2830
2018-08-03T12:06:43.218Z,2820
2018-08-03T12:07:43.826Z,2845
2018-08-03T12:08:44.414Z,2860
2018-08-03T12:09:45.001Z,2865
2018-08-03T12:10:45.590Z,2880
2018-08-03T12:11:46.196Z,2915
2018-08-03T12:12:46.782Z,2920
2018-08-03T12:13:47.367Z,2965
2018-08-03T12:14:47.976Z,2980
2018-08-03T12:15:48.568Z,2955
2018-08-03T12:16:49.153Z,2985
2018-08-03T12:17:49.804Z,2975
2018-08-03T12:18:50.329Z,2975
2018-08-03T12:19:50.918Z,2970
2018-08-03T12:20:51.507Z,2955
2018-08-03T12:21:52.096Z,2905
2018-08-03T12:22:52.685Z,2880
2018-08-03T12:23:53.333Z,2885
2018-08-03T12:24:53.859Z,2855
2018-08-03T12:25:54.446Z,2865
2018-08-03T12:26:55.035Z,2830
2018-08-03T12:27:55.643Z,2790
2018-08-03T12:28:56.232Z,2840
2018-08-03T12:29:56.821Z,2860
2018-08-03T12:30:57.409Z,2865
2018-08-03T12:31:57.999Z,2840
2018-08-03T12:32:58.587Z,2890
2018-08-03T12:33:59.180Z,2895
2018-08-03T12:34:59.764Z,2880
2018-08-03T12:36:00.353Z,2820
2018-08-03T12:37:01.020Z,2725
2018-08-03T12:38:01.553Z,2310
2018-08-03T12:39:02.139Z,1375
2018-08-03T12:40:02.725Z,890
2018-08-03T12:41:03.312Z,790
2018-08-03T12:42:03.900Z,765
2018-08-03T12:43:04.488Z,525
2018-08-03T12:44:05.077Z,560
2018-08-03T12:45:05.664Z,705
2018-08-03T12:46:06.327Z,720
2018-08-03T12:47:06.837Z,725
2018-08-03T12:48:07.422Z,730
2018-08-03T12:49:08.008Z,765
2018-08-03T12:50:08.615Z,855
2018-08-03T12:51:09.206Z,1075
2018-08-03T12:52:09.812Z,1830
2018-08-03T12:53:10.400Z,2355
2018-08-03T12:54:10.988Z,2495
2018-08-03T12:55:11.579Z,2510
2018-08-03T12:56:12.163Z,2575
2018-08-03T12:57:12.749Z,2585
2018-08-03T12:58:13.358Z,2630
2018-08-03T12:59:13.945Z,2640
2018-08-03T13:00:14.532Z,2680
2018-08-03T13:01:15.171Z,2670
2018-08-03T13:02:15.708Z,2650
2018-08-03T13:03:16.295Z,2590
2018-08-03T13:04:16.933Z,2545
2018-08-03T13:05:17.480Z,2655
2018-08-03T13:06:18.082Z,1850
2018-08-03T13:07:18.758Z,2405
2018-08-03T13:08:19.410Z,2380
2018-08-03T13:09:19.874Z,2435
2018-08-03T13:10:20.463Z,2415
2018-08-03T13:11:21.052Z,2410
2018-08-03T13:12:21.636Z,2470
2018-08-03T13:13:22.306Z,2430
2018-08-03T13:14:22.830Z,2445
2018-08-03T13:15:23.415Z,2440
2018-08-03T13:16:24.003Z,2485
2018-08-03T13:17:24.590Z,2470
2018-08-03T13:18:25.178Z,2510
2018-08-03T13:19:25.764Z,2430
2018-08-03T13:20:26.351Z,2285
2018-08-03T13:21:26.939Z,2155
2018-08-03T13:22:27.525Z,2310
2018-08-03T13:23:28.115Z,2325
2018-08-03T13:24:28.723Z,2335
2018-08-03T13:25:29.311Z,2345
2018-08-03T13:26:29.901Z,2330
2018-08-03T13:27:30.549Z,2355
2018-08-03T13:28:31.096Z,2380
2018-08-03T13:29:31.712Z,2390
2018-08-03T13:30:32.272Z,2385
2018-08-03T13:31:32.858Z,2410
2018-08-03T13:32:33.445Z,2410
2018-08-03T13:33:34.031Z,2395
2018-08-03T13:34:34.618Z,2370
2018-08-03T13:35:35.206Z,2350
2018-08-03T13:36:35.821Z,2300
2018-08-03T13:37:36.382Z,2250
2018-08-03T13:38:36.989Z,2200
2018-08-03T13:39:37.598Z,2165
2018-08-03T13:40:38.186Z,2165
2018-08-03T13:41:38.774Z,2175
2018-08-03T13:42:39.382Z,2180
2018-08-03T13:43:39.968Z,2175
2018-08-03T13:44:40.605Z,2180
2018-08-03T13:45:41.162Z,2175
2018-08-03T13:46:41.751Z,2200
2018-08-03T13:47:42.339Z,2160
2018-08-03T13:48:42.926Z,2150
2018-08-03T13:49:43.535Z,2105
2018-08-03T13:50:44.121Z,2075
2018-08-03T13:51:44.707Z,2090
2018-08-03T13:52:45.295Z,2115
2018-08-03T13:53:45.889Z,2140
2018-08-03T13:54:46.498Z,2140
2018-08-03T13:55:47.086Z,2160
2018-08-03T13:56:47.673Z,2185
2018-08-03T13:57:48.313Z,2190
2018-08-03T13:58:48.865Z,2160
2018-08-03T13:59:49.448Z,2155